Time;durP1;ratioP1;P1;durP2;ratioP2;P2;SDS_P1;SDS_P2;PMS_P1;PMS_P2;Temp;Humidity;BMP_temperature;BMP_pressure;BME280_temperature;BME280_humidity;BME280_pressure;Samples;Min_cycle;Max_cycle;Signal;HPM_P1;HPM_P2
2022/02/07 00:03:52;;;;;;;9.63;6.22;;;;;;;;;;4377739;32;20541;-64
2022/02/07 00:06:19;;;;;;;9.77;6.00;;;;;;;;;;4365076;32;20066;-63
2022/02/07 00:08:46;;;;;;;9.40;6.05;;;;;;;;;;4364649;32;20089;-64
2022/02/07 00:11:16;;;;;;;9.88;5.90;;;;;;;;;;4364886;32;20074;-63
2022/02/07 00:13:43;;;;;;;9.00;5.97;;;;;;;;;;4377059;32;20170;-63
2022/02/07 00:16:10;;;;;;;9.77;5.75;;;;;;;;;;4379111;32;20089;-62
2022/02/07 00:18:38;;;;;;;9.52;5.65;;;;;;;;;;4377124;32;20090;-62
2022/02/07 00:21:05;;;;;;;6.95;4.85;;;;;;;;;;4377707;32;20187;-63
2022/02/07 00:23:32;;;;;;;9.07;5.47;;;;;;;;;;4377060;32;20074;-64
2022/02/07 00:25:59;;;;;;;10.20;5.95;;;;;;;;;;4365185;32;20077;-63
2022/02/07 00:28:26;;;;;;;9.18;5.75;;;;;;;;;;4365042;32;20171;-62
2022/02/07 00:30:52;;;;;;;8.30;6.07;;;;;;;;;;4364620;32;20086;-63
2022/02/07 00:33:19;;;;;;;9.63;5.70;;;;;;;;;;4377412;32;20090;-62
2022/02/07 00:35:46;;;;;;;9.07;5.93;;;;;;;;;;4378426;32;20081;-63
2022/02/07 00:38:17;;;;;;;9.43;6.00;;;;;;;;;;4364593;32;20518;-64
2022/02/07 00:45:53;;;;;;;9.35;5.25;;;;;;;;;;4377737;32;20082;-63
2022/02/07 00:48:23;;;;;;;8.52;5.53;;;;;;;;;;4379126;32;20516;-64
2022/02/07 00:50:50;;;;;;;8.77;5.53;;;;;;;;;;4364515;32;20158;-63
2022/02/07 00:53:17;;;;;;;11.23;6.85;;;;;;;;;;4364336;32;20081;-64
2022/02/07 00:55:44;;;;;;;9.40;6.22;;;;;;;;;;4351883;32;20096;-64
2022/02/07 00:58:12;;;;;;;8.65;6.10;;;;;;;;;;4376552;32;20520;-63
2022/02/07 01:00:39;;;;;;;10.77;6.72;;;;;;;;;;4377193;32;20170;-64
2022/02/07 01:03:06;;;;;;;9.55;5.68;;;;;;;;;;4351732;32;20483;-64
2022/02/07 01:05:33;;;;;;;9.48;5.87;;;;;;;;;;4376801;32;20073;-63
2022/02/07 01:08:01;;;;;;;9.40;5.95;;;;;;;;;;4351699;32;20076;-64
2022/02/07 01:10:37;;;;;;;9.40;5.75;;;;;;;;;;4377037;32;20510;-63
2022/02/07 01:16:08;;;;;;;9.18;6.18;;;;;;;;;;4377973;32;20071;-63
2022/02/07 01:45:56;;;;;;;11.57;6.65;;;;;;;;;;4364201;32;20082;-64
2022/02/07 01:56:40;;;;;;;11.20;6.90;;;;;;;;;;4376054;32;20170;-62
2022/02/07 01:59:07;;;;;;;11.98;7.20;;;;;;;;;;4363293;32;20089;-63
2022/02/07 02:01:36;;;;;;;11.20;7.70;;;;;;;;;;4350736;32;20513;-62
2022/02/07 02:04:04;;;;;;;10.93;6.65;;;;;;;;;;4350772;32;20452;-64
2022/02/07 02:06:31;;;;;;;11.40;7.15;;;;;;;;;;4377579;32;20098;-64
2022/02/07 02:08:59;;;;;;;12.45;7.15;;;;;;;;;;4363419;32;20102;-63
2022/02/07 02:11:26;;;;;;;9.70;6.60;;;;;;;;;;4376577;32;20162;-63
2022/02/07 02:37:55;;;;;;;14.15;9.27;;;;;;;;;;4375678;32;20073;-63
2022/02/07 02:45:42;;;;;;;16.50;9.65;;;;;;;;;;4375334;32;20164;-62
2022/02/07 02:48:16;;;;;;;14.43;9.88;;;;;;;;;;4375560;32;20081;-63
2022/02/07 02:50:44;;;;;;;14.02;9.00;;;;;;;;;;4350385;32;20471;-63
2022/02/07 02:53:12;;;;;;;14.98;9.60;;;;;;;;;;4362685;32;20066;-64
2022/02/07 02:55:42;;;;;;;14.23;9.50;;;;;;;;;;4362637;32;20078;-63
2022/02/07 02:58:10;;;;;;;13.45;9.93;;;;;;;;;;4362475;32;20502;-63
2022/02/07 03:00:38;;;;;;;12.77;8.85;;;;;;;;;;4362999;32;20156;-63
2022/02/07 03:03:05;;;;;;;13.98;9.13;;;;;;;;;;4374870;32;20080;-64
2022/02/07 03:05:32;;;;;;;15.68;9.88;;;;;;;;;;4375637;32;20093;-64
2022/02/07 03:07:59;;;;;;;14.57;9.95;;;;;;;;;;4349901;32;20460;-64
2022/02/07 03:18:34;;;;;;;12.55;9.00;;;;;;;;;;4361975;32;20089;-63
2022/02/07 03:21:01;;;;;;;16.75;9.30;;;;;;;;;;4362931;32;20093;-63
2022/02/07 03:23:27;;;;;;;15.48;9.00;;;;;;;;;;4376025;32;20070;-62
2022/02/07 03:25:55;;;;;;;14.50;8.95;;;;;;;;;;4375991;32;20456;-64
2022/02/07 03:28:24;;;;;;;15.05;9.30;;;;;;;;;;4362202;32;20084;-62
2022/02/07 03:30:50;;;;;;;8.82;4.12;;;;;;;;;;4362262;32;20089;-64
2022/02/07 03:33:17;;;;;;;4.03;2.83;;;;;;;;;;4362556;32;20059;-63
2022/02/07 03:35:44;;;;;;;17.30;9.95;;;;;;;;;;4362416;32;20082;-64
2022/02/07 03:38:11;;;;;;;15.90;8.82;;;;;;;;;;4375248;32;20096;-63
2022/02/07 03:40:38;;;;;;;14.75;9.45;;;;;;;;;;4350014;32;20074;-64
2022/02/07 03:43:05;;;;;;;16.15;9.98;;;;;;;;;;4374435;32;20149;-64
2022/02/07 03:45:32;;;;;;;23.87;15.57;;;;;;;;;;4362075;32;20067;-63
2022/02/07 03:47:59;;;;;;;17.48;11.23;;;;;;;;;;4374550;32;20524;-63
2022/02/07 03:50:25;;;;;;;14.45;9.90;;;;;;;;;;4375714;32;20081;-63
2022/02/07 03:52:52;;;;;;;15.20;9.27;;;;;;;;;;4362602;32;20081;-62
2022/02/07 03:55:19;;;;;;;14.68;9.65;;;;;;;;;;4362154;32;20130;-62
2022/02/07 03:57:46;;;;;;;16.65;10.30;;;;;;;;;;4362230;32;20090;-63
2022/02/07 04:00:13;;;;;;;18.45;12.27;;;;;;;;;;4374605;32;20601;-64
2022/02/07 04:02:44;;;;;;;18.58;11.95;;;;;;;;;;4349655;32;20445;-63
2022/02/07 04:05:43;;;;;;;16.15;11.07;;;;;;;;;;4363226;32;20074;-63
2022/02/07 04:07:57;;;;;;;;;;;;;;;;;;4375812;32;20070;-63
2022/02/07 04:10:25;;;;;;;17.23;11.38;;;;;;;;;;4362015;32;19962;-63
2022/02/07 04:12:58;;;;;;;19.00;12.80;;;;;;;;;;4376032;32;20151;-64
2022/02/07 04:15:25;;;;;;;18.48;12.75;;;;;;;;;;4375951;32;20129;-63
2022/02/07 04:18:00;;;;;;;18.30;11.40;;;;;;;;;;4362138;32;20520;-62
2022/02/07 04:20:26;;;;;;;21.15;12.05;;;;;;;;;;4375569;32;20138;-62
2022/02/07 04:22:53;;;;;;;16.58;11.35;;;;;;;;;;4374687;32;20545;-64
2022/02/07 04:25:19;;;;;;;18.40;12.23;;;;;;;;;;4349609;32;20098;-63
2022/02/07 04:27:46;;;;;;;21.17;13.70;;;;;;;;;;4361744;32;20539;-63
2022/02/07 04:30:13;;;;;;;22.90;14.95;;;;;;;;;;4374502;32;20075;-63
2022/02/07 04:32:40;;;;;;;22.08;15.02;;;;;;;;;;4361895;32;20528;-63
2022/02/07 04:35:07;;;;;;;21.87;14.05;;;;;;;;;;4375595;32;20178;-63
2022/02/07 04:37:34;;;;;;;22.37;12.43;;;;;;;;;;4377472;32;20085;-63
2022/02/07 04:40:01;;;;;;;16.73;9.68;;;;;;;;;;4377133;32;20078;-62
2022/02/07 04:42:28;;;;;;;14.25;9.65;;;;;;;;;;4364644;32;20084;-64
2022/02/07 04:47:46;;;;;;;15.30;9.93;;;;;;;;;;4378596;32;20070;-63
2022/02/07 04:53:13;;;;;;;11.50;6.43;;;;;;;;;;4364276;32;20456;-62
2022/02/07 04:58:14;;;;;;;11.65;6.70;;;;;;;;;;4378399;32;20069;-63
2022/02/07 05:00:55;;;;;;;9.30;5.93;;;;;;;;;;4378335;32;20097;-64
2022/02/07 05:03:28;;;;;;;12.77;6.80;;;;;;;;;;4377984;32;20145;-62
2022/02/07 05:14:11;;;;;;;12.18;7.15;;;;;;;;;;4363845;32;20468;-64
2022/02/07 05:16:39;;;;;;;13.07;7.20;;;;;;;;;;4351733;32;20078;-63
2022/02/07 05:19:06;;;;;;;11.00;7.15;;;;;;;;;;4377718;32;20520;-63
2022/02/07 05:21:33;;;;;;;11.85;6.65;;;;;;;;;;4364206;32;20077;-64
2022/02/07 05:24:00;;;;;;;10.57;7.22;;;;;;;;;;4351722;32;20146;-63
2022/02/07 05:26:26;;;;;;;11.65;7.55;;;;;;;;;;4363612;32;20651;-63
2022/02/07 05:28:54;;;;;;;13.48;7.68;;;;;;;;;;4377818;32;20101;-63
2022/02/07 05:31:22;;;;;;;12.50;7.05;;;;;;;;;;4376332;32;20069;-64
2022/02/07 05:33:48;;;;;;;10.82;7.35;;;;;;;;;;4363836;32;20171;-63
2022/02/07 05:36:15;;;;;;;13.68;7.70;;;;;;;;;;4364121;32;20093;-63
2022/02/07 05:38:46;;;;;;;13.30;8.73;;;;;;;;;;4351252;32;20081;-64
2022/02/07 05:41:15;;;;;;;13.10;7.40;;;;;;;;;;4364030;32;20074;-62
2022/02/07 05:43:45;;;;;;;10.52;6.90;;;;;;;;;;4351609;32;20065;-64
2022/02/07 05:46:12;;;;;;;15.27;7.97;;;;;;;;;;4363169;32;20098;-63
2022/02/07 05:48:39;;;;;;;11.80;7.40;;;;;;;;;;4377461;32;20081;-63
2022/02/07 05:51:05;;;;;;;12.02;7.50;;;;;;;;;;4376058;32;20073;-63
2022/02/07 05:53:32;;;;;;;11.68;7.70;;;;;;;;;;4350960;32;20188;-64
2022/02/07 05:55:59;;;;;;;13.15;7.45;;;;;;;;;;4363514;32;20066;-63
2022/02/07 05:58:27;;;;;;;11.48;6.90;;;;;;;;;;4377209;32;20059;-63
2022/02/07 06:00:54;;;;;;;10.77;7.62;;;;;;;;;;4363384;32;20542;-62
2022/02/07 06:03:21;;;;;;;15.77;8.25;;;;;;;;;;4363536;32;20080;-62
2022/02/07 06:05:51;;;;;;;13.68;8.40;;;;;;;;;;4363134;32;20468;-62
2022/02/07 06:08:19;;;;;;;13.18;8.20;;;;;;;;;;4375885;32;20074;-62
2022/02/07 06:10:47;;;;;;;13.32;8.48;;;;;;;;;;4376907;32;20089;-62
2022/02/07 06:13:18;;;;;;;11.57;7.22;;;;;;;;;;4377761;32;20156;-62
2022/02/07 06:15:45;;;;;;;12.15;7.43;;;;;;;;;;4363546;32;20088;-61
2022/02/07 06:18:16;;;;;;;12.35;8.02;;;;;;;;;;4363389;32;20093;-62
2022/02/07 06:20:43;;;;;;;14.15;8.68;;;;;;;;;;4363307;32;20097;-61
2022/02/07 06:23:09;;;;;;;13.40;7.75;;;;;;;;;;4376781;32;20085;-62
2022/02/07 06:25:36;;;;;;;13.62;7.40;;;;;;;;;;4376227;32;20066;-63
2022/02/07 06:28:03;;;;;;;14.68;8.23;;;;;;;;;;4350753;32;20097;-61
2022/02/07 06:30:30;;;;;;;11.18;7.00;;;;;;;;;;4363015;32;20190;-61
2022/02/07 06:32:57;;;;;;;9.23;6.05;;;;;;;;;;4375244;32;20069;-62
2022/02/07 06:35:23;;;;;;;9.95;6.00;;;;;;;;;;4362802;32;20085;-63
2022/02/07 06:40:29;;;;;;;8.13;5.03;;;;;;;;;;3857103;37;20062;-62
2022/02/07 06:42:56;;;;;;;5.95;4.05;;;;;;;;;;4419853;32;20159;-62
2022/02/07 06:45:23;;;;;;;7.82;4.47;;;;;;;;;;4392652;32;20097;-62
2022/02/07 06:47:50;;;;;;;7.30;4.85;;;;;;;;;;4418368;32;20099;-63
2022/02/07 06:50:16;;;;;;;7.28;4.85;;;;;;;;;;4405405;32;20172;-63
2022/02/07 06:52:43;;;;;;;8.63;5.07;;;;;;;;;;4418443;32;20089;-63
2022/02/07 06:55:10;;;;;;;7.70;5.20;;;;;;;;;;4393179;32;20092;-61
2022/02/07 06:57:36;;;;;;;7.85;5.00;;;;;;;;;;4405437;32;20092;-62
2022/02/07 07:00:05;;;;;;;8.13;5.10;;;;;;;;;;4405114;32;20186;-62
2022/02/07 07:02:32;;;;;;;7.70;5.53;;;;;;;;;;4405242;32;20459;-63
2022/02/07 07:05:06;;;;;;;8.48;5.25;;;;;;;;;;4405328;32;20089;-63
2022/02/07 07:07:33;;;;;;;8.32;5.15;;;;;;;;;;4402552;32;20090;-62
2022/02/07 07:10:00;;;;;;;9.20;5.57;;;;;;;;;;4402465;32;20077;-61
2022/02/07 07:12:29;;;;;;;9.35;5.35;;;;;;;;;;4390349;32;20092;-62
2022/02/07 07:15:18;;;;;;;9.18;5.60;;;;;;;;;;4415478;32;20085;-61
2022/02/07 07:17:45;;;;;;;8.32;5.75;;;;;;;;;;4402516;32;20159;-61
2022/02/07 07:20:11;;;;;;;8.85;5.72;;;;;;;;;;4402144;32;20066;-62
2022/02/07 07:22:41;;;;;;;10.95;6.37;;;;;;;;;;4402194;32;20078;-62
2022/02/07 07:25:14;;;;;;;8.20;5.50;;;;;;;;;;4414496;32;20077;-61
2022/02/07 07:27:56;;;;;;;10.80;6.25;;;;;;;;;;4402459;32;20081;-63
2022/02/07 07:30:29;;;;;;;7.60;4.70;;;;;;;;;;4402446;32;20073;-61
2022/02/07 07:33:01;;;;;;;8.52;5.22;;;;;;;;;;4414407;32;20081;-62
2022/02/07 07:35:28;;;;;;;6.95;4.35;;;;;;;;;;4402868;32;20058;-62
2022/02/07 07:37:55;;;;;;;6.53;4.00;;;;;;;;;;4415546;32;20068;-61
2022/02/07 07:40:22;;;;;;;6.85;4.37;;;;;;;;;;4402202;32;20157;-64
2022/02/07 07:42:53;;;;;;;5.75;4.00;;;;;;;;;;4415029;32;20247;-62
2022/02/07 07:45:23;;;;;;;6.35;4.32;;;;;;;;;;4402395;32;20107;-63
2022/02/07 07:47:56;;;;;;;6.72;3.75;;;;;;;;;;4401740;32;20089;-63
2022/02/07 07:50:29;;;;;;;5.53;4.15;;;;;;;;;;4398484;32;20076;-63
2022/02/07 08:01:16;;;;;;;5.82;4.15;;;;;;;;;;4393197;32;20112;-61
2022/02/07 08:03:49;;;;;;;6.50;4.20;;;;;;;;;;4391804;32;20086;-62
2022/02/07 08:08:50;;;;;;;7.43;4.28;;;;;;;;;;4393013;32;20081;-64
2022/02/07 08:11:18;;;;;;;4.90;3.85;;;;;;;;;;4392310;32;20086;-62
2022/02/07 08:13:45;;;;;;;6.50;4.53;;;;;;;;;;4392184;32;20061;-65
2022/02/07 08:16:12;;;;;;;5.97;4.15;;;;;;;;;;4393169;32;20447;-63
2022/02/07 08:18:39;;;;;;;6.47;4.50;;;;;;;;;;4404182;32;20069;-62
2022/02/07 08:21:06;;;;;;;7.15;4.60;;;;;;;;;;4391717;32;20070;-62
2022/02/07 08:23:33;;;;;;;6.03;4.03;;;;;;;;;;4392804;32;20086;-63
2022/02/07 08:26:02;;;;;;;6.75;3.97;;;;;;;;;;4393012;32;20073;-62
2022/02/07 08:28:29;;;;;;;6.97;4.65;;;;;;;;;;4392069;32;20084;-63
2022/02/07 08:30:56;;;;;;;6.32;4.03;;;;;;;;;;4392456;32;20077;-63
2022/02/07 08:33:22;;;;;;;5.70;4.30;;;;;;;;;;4378901;32;20118;-63
2022/02/07 08:35:49;;;;;;;6.18;4.25;;;;;;;;;;4391103;32;20077;-62
2022/02/07 08:38:17;;;;;;;6.53;4.25;;;;;;;;;;4390564;32;20526;-63
2022/02/07 08:40:44;;;;;;;7.00;4.10;;;;;;;;;;4404013;32;20162;-64
2022/02/07 08:43:11;;;;;;;6.47;4.82;;;;;;;;;;4378751;32;20097;-63
2022/02/07 08:45:38;;;;;;;6.37;4.45;;;;;;;;;;4392616;32;20078;-63
2022/02/07 08:48:05;;;;;;;8.13;4.47;;;;;;;;;;4392532;32;20089;-62
2022/02/07 08:50:32;;;;;;;6.50;4.35;;;;;;;;;;4404159;32;20066;-63
2022/02/07 08:53:00;;;;;;;6.93;5.00;;;;;;;;;;4391296;32;20077;-64
2022/02/07 08:55:32;;;;;;;7.47;5.03;;;;;;;;;;4391098;32;20073;-62
2022/02/07 08:58:06;;;;;;;7.87;5.30;;;;;;;;;;4391240;32;20165;-62
2022/02/07 09:00:52;;;;;;;7.90;5.25;;;;;;;;;;4391586;32;20087;-62
2022/02/07 09:06:16;;;;;;;7.90;5.15;;;;;;;;;;4393036;32;20231;-63
2022/02/07 09:11:11;;;;;;;7.43;4.95;;;;;;;;;;4404731;32;20105;-62
2022/02/07 09:13:41;;;;;;;8.60;6.07;;;;;;;;;;4391703;32;20092;-61
2022/02/07 09:18:37;;;;;;;7.82;5.60;;;;;;;;;;4404161;32;20069;-62
2022/02/07 09:21:06;;;;;;;9.20;6.40;;;;;;;;;;4403226;32;20517;-63
2022/02/07 09:23:34;;;;;;;9.75;5.90;;;;;;;;;;4378339;32;20098;-62
2022/02/07 09:26:01;;;;;;;9.40;5.82;;;;;;;;;;4404192;32;20089;-62
2022/02/07 09:28:28;;;;;;;8.15;5.55;;;;;;;;;;4393166;32;20170;-62
2022/02/07 09:30:55;;;;;;;9.18;6.05;;;;;;;;;;4391953;32;20093;-63
2022/02/07 09:33:22;;;;;;;8.60;5.93;;;;;;;;;;4391668;32;20520;-63
2022/02/07 09:35:51;;;;;;;10.23;6.30;;;;;;;;;;4405108;32;20074;-62
2022/02/07 09:38:19;;;;;;;10.48;6.57;;;;;;;;;;4403318;32;20084;-63
2022/02/07 09:40:50;;;;;;;12.63;6.72;;;;;;;;;;4392268;32;20111;-62
2022/02/07 09:43:21;;;;;;;10.23;7.03;;;;;;;;;;4391658;32;20089;-62
2022/02/07 09:45:50;;;;;;;9.68;6.70;;;;;;;;;;4390748;32;20073;-62
2022/02/07 09:48:17;;;;;;;10.02;6.78;;;;;;;;;;4392280;32;20079;-62
2022/02/07 09:50:45;;;;;;;10.65;7.25;;;;;;;;;;4402974;32;20155;-63
2022/02/07 09:53:12;;;;;;;9.30;6.45;;;;;;;;;;4403010;32;20077;-63
2022/02/07 09:55:38;;;;;;;10.95;7.03;;;;;;;;;;4402920;32;20472;-62
2022/02/07 09:58:06;;;;;;;9.75;6.25;;;;;;;;;;4403147;32;20519;-62
2022/02/07 10:00:35;;;;;;;10.10;6.60;;;;;;;;;;4390140;32;20089;-63
2022/02/07 10:03:16;;;;;;;8.82;6.47;;;;;;;;;;4377865;32;20070;-63
2022/02/07 10:15:10;;;;;;;8.02;5.45;;;;;;;;;;4356596;32;20082;-63
2022/02/07 10:20:30;;;;;;;10.48;6.97;;;;;;;;;;4402350;32;20081;-62
2022/02/07 10:41:07;;;;;;;8.23;5.65;;;;;;;;;;4389306;32;20088;-64
2022/02/07 10:43:45;;;;;;;8.73;5.70;;;;;;;;;;4391850;32;20158;-62
2022/02/07 10:46:18;;;;;;;8.68;5.55;;;;;;;;;;4390618;32;20068;-63
2022/02/07 10:48:55;;;;;;;9.18;6.25;;;;;;;;;;4389953;32;20123;-63
2022/02/07 10:51:25;;;;;;;;;;;;;;;;;;4389717;32;20077;-62
2022/02/07 10:54:00;;;;;;;9.30;5.80;;;;;;;;;;4391653;32;19968;-62
2022/02/07 10:56:46;;;;;;;9.43;6.20;;;;;;;;;;4389852;32;20104;-62
2022/02/07 10:59:15;;;;;;;9.32;5.95;;;;;;;;;;4391329;32;20179;-63
2022/02/07 11:04:19;;;;;;;9.25;6.30;;;;;;;;;;4389554;32;20158;-62
2022/02/07 11:06:50;;;;;;;8.82;6.12;;;;;;;;;;4401701;32;20089;-63
2022/02/07 11:09:23;;;;;;;9.05;6.18;;;;;;;;;;4389324;32;20150;-63
2022/02/07 11:25:25;;;;;;;8.52;4.60;;;;;;;;;;4401628;32;20076;-63
2022/02/07 11:27:59;;;;;;;7.82;4.82;;;;;;;;;;4391992;32;20181;-63
2022/02/07 11:30:35;;;;;;;8.20;6.00;;;;;;;;;;4392538;32;20078;-63
2022/02/07 11:33:06;;;;;;;8.88;6.37;;;;;;;;;;4379509;32;20074;-63
2022/02/07 11:35:36;;;;;;;8.10;5.47;;;;;;;;;;4393960;32;20145;-62
2022/02/07 11:38:05;;;;;;;8.88;6.12;;;;;;;;;;4404706;32;20092;-63
2022/02/07 11:40:39;;;;;;;8.63;5.15;;;;;;;;;;4394084;32;20069;-62
2022/02/07 11:43:19;;;;;;;8.77;5.72;;;;;;;;;;4392118;32;20526;-63
2022/02/07 11:46:10;;;;;;;10.30;6.40;;;;;;;;;;4404434;32;20162;-63
2022/02/07 11:48:42;;;;;;;8.23;5.37;;;;;;;;;;4405358;32;20081;-64
2022/02/07 11:51:16;;;;;;;8.93;5.93;;;;;;;;;;4392606;32;20074;-62
2022/02/07 11:53:49;;;;;;;8.18;6.07;;;;;;;;;;4405236;32;20077;-62
2022/02/07 11:56:28;;;;;;;8.30;5.05;;;;;;;;;;4379776;32;20510;-64
2022/02/07 11:59:07;;;;;;;8.48;5.45;;;;;;;;;;4392354;32;20066;-62
2022/02/07 12:01:58;;;;;;;9.02;6.03;;;;;;;;;;4394227;32;20085;-62
2022/02/07 12:04:44;;;;;;;8.13;5.40;;;;;;;;;;4385362;32;20134;-62
2022/02/07 12:07:31;;;;;;;7.10;5.07;;;;;;;;;;4380105;32;20080;-63
2022/02/07 12:09:59;;;;;;;8.40;5.07;;;;;;;;;;4391555;32;20145;-61
2022/02/07 12:12:48;;;;;;;7.57;5.37;;;;;;;;;;4379304;32;20143;-63
2022/02/07 12:15:33;;;;;;;7.50;5.10;;;;;;;;;;4404459;32;20082;-62
2022/02/07 12:18:15;;;;;;;8.73;5.22;;;;;;;;;;4391912;32;20219;-64
2022/02/07 12:20:43;;;;;;;7.22;4.95;;;;;;;;;;4378643;32;20527;-63
2022/02/07 12:23:17;;;;;;;6.97;5.20;;;;;;;;;;4393126;32;20085;-63
2022/02/07 12:25:55;;;;;;;7.90;5.28;;;;;;;;;;4391458;32;20604;-63
2022/02/07 12:28:40;;;;;;;7.65;5.30;;;;;;;;;;4391912;32;20078;-64
2022/02/07 12:31:19;;;;;;;7.62;5.18;;;;;;;;;;4391280;32;20539;-63
2022/02/07 12:33:57;;;;;;;7.65;5.20;;;;;;;;;;4378844;32;20070;-64
2022/02/07 12:36:26;;;;;;;7.53;4.70;;;;;;;;;;4391490;32;20076;-64
2022/02/07 12:38:54;;;;;;;6.78;4.60;;;;;;;;;;4403770;32;20197;-62
2022/02/07 12:41:23;;;;;;;7.32;4.90;;;;;;;;;;4391911;32;20141;-64
2022/02/07 12:43:51;;;;;;;6.43;4.68;;;;;;;;;;4391324;32;20082;-62
2022/02/07 12:46:19;;;;;;;7.57;5.07;;;;;;;;;;4378679;32;20145;-65
2022/02/07 12:48:54;;;;;;;7.40;4.95;;;;;;;;;;4403518;32;20441;-63
2022/02/07 12:51:26;;;;;;;5.72;4.32;;;;;;;;;;4403386;32;20086;-63
2022/02/07 12:53:53;;;;;;;7.32;4.22;;;;;;;;;;4403791;32;20105;-63
2022/02/07 12:56:21;;;;;;;6.93;4.28;;;;;;;;;;4378364;32;20593;-63
2022/02/07 12:58:49;;;;;;;7.62;4.62;;;;;;;;;;4392466;32;20185;-63
2022/02/07 13:01:20;;;;;;;6.07;3.90;;;;;;;;;;4403670;32;20092;-63
2022/02/07 13:03:52;;;;;;;8.38;4.72;;;;;;;;;;4392468;32;20075;-63
2022/02/07 13:06:34;;;;;;;7.68;4.12;;;;;;;;;;4403550;32;20152;-63
2022/02/07 13:09:05;;;;;;;6.07;4.15;;;;;;;;;;4391099;32;20078;-63
2022/02/07 13:11:34;;;;;;;6.53;4.25;;;;;;;;;;4390669;32;20154;-63
2022/02/07 13:14:03;;;;;;;6.80;4.50;;;;;;;;;;4390790;32;20096;-63
2022/02/07 13:16:31;;;;;;;6.97;3.87;;;;;;;;;;4392037;32;20141;-64
2022/02/07 13:19:20;;;;;;;7.68;4.57;;;;;;;;;;4403165;32;20080;-63
2022/02/07 13:21:49;;;;;;;6.50;3.97;;;;;;;;;;4390922;32;20070;-63
2022/02/07 13:24:26;;;;;;;7.03;4.78;;;;;;;;;;4390928;32;20169;-64
2022/02/07 13:26:55;;;;;;;7.40;4.68;;;;;;;;;;4390860;32;20334;-62
2022/02/07 13:29:46;;;;;;;8.32;4.80;;;;;;;;;;4403672;32;20501;-63
2022/02/07 13:32:24;;;;;;;7.53;5.15;;;;;;;;;;4392262;32;20074;-63
2022/02/07 13:35:04;;;;;;;9.40;5.30;;;;;;;;;;4391610;32;20145;-63
2022/02/07 13:37:33;;;;;;;7.93;5.07;;;;;;;;;;4403551;32;20508;-62
2022/02/07 13:40:07;;;;;;;7.25;4.68;;;;;;;;;;4402633;32;20100;-63
2022/02/07 13:42:42;;;;;;;9.52;6.07;;;;;;;;;;4391843;32;20061;-62
2022/02/07 13:45:09;;;;;;;8.98;5.50;;;;;;;;;;4390526;32;20163;-62
2022/02/07 13:47:40;;;;;;;9.25;5.93;;;;;;;;;;4402898;32;20092;-63
2022/02/07 13:50:11;;;;;;;8.25;5.25;;;;;;;;;;4390126;32;20084;-63
2022/02/07 13:52:43;;;;;;;8.40;5.07;;;;;;;;;;4390238;32;20167;-63
2022/02/07 13:55:20;;;;;;;8.05;4.97;;;;;;;;;;4390285;32;20070;-64
2022/02/07 13:57:55;;;;;;;8.23;5.00;;;;;;;;;;4390714;32;20160;-64
2022/02/07 14:00:41;;;;;;;8.23;5.25;;;;;;;;;;4390268;32;20513;-63
2022/02/07 14:03:15;;;;;;;7.97;5.32;;;;;;;;;;4378435;32;20456;-63
2022/02/07 14:05:48;;;;;;;7.25;4.80;;;;;;;;;;4390995;32;20444;-64
2022/02/07 14:08:16;;;;;;;9.27;4.95;;;;;;;;;;4402870;32;20085;-63
2022/02/07 14:10:45;;;;;;;7.30;4.82;;;;;;;;;;4377337;32;20086;-64
2022/02/07 14:13:16;;;;;;;9.93;5.60;;;;;;;;;;4377499;32;20175;-64
2022/02/07 14:15:45;;;;;;;9.57;5.68;;;;;;;;;;4391603;32;20131;-64
2022/02/07 14:18:15;;;;;;;7.37;5.20;;;;;;;;;;4402843;32;20070;-63
2022/02/07 14:20:42;;;;;;;8.13;5.43;;;;;;;;;;4402732;32;20072;-63
2022/02/07 14:23:13;;;;;;;7.40;5.35;;;;;;;;;;4377481;32;20101;-63
2022/02/07 14:25:42;;;;;;;10.20;5.87;;;;;;;;;;4402543;32;20080;-64
2022/02/07 14:28:09;;;;;;;9.50;5.80;;;;;;;;;;4402369;32;20069;-63
2022/02/07 14:30:37;;;;;;;8.13;5.50;;;;;;;;;;4402844;32;20097;-63
2022/02/07 14:33:04;;;;;;;8.90;5.43;;;;;;;;;;4390560;32;20093;-63
2022/02/07 14:35:32;;;;;;;8.55;5.57;;;;;;;;;;4377646;32;20074;-62
2022/02/07 14:38:03;;;;;;;9.18;5.35;;;;;;;;;;4390153;32;20069;-63
2022/02/07 14:40:31;;;;;;;7.85;4.90;;;;;;;;;;4392371;32;20077;-64
2022/02/07 14:43:00;;;;;;;9.43;5.32;;;;;;;;;;4405919;32;20098;-64
2022/02/07 14:45:35;;;;;;;7.25;5.15;;;;;;;;;;4394728;32;20084;-63
2022/02/07 14:48:03;;;;;;;9.13;5.78;;;;;;;;;;4392519;32;20085;-64
2022/02/07 14:50:31;;;;;;;9.02;5.78;;;;;;;;;;4393942;32;20093;-63
2022/02/07 14:52:59;;;;;;;8.00;5.68;;;;;;;;;;4401726;32;20081;-63
2022/02/07 14:55:26;;;;;;;9.18;6.10;;;;;;;;;;4402565;32;20071;-63
2022/02/07 14:57:53;;;;;;;7.32;5.10;;;;;;;;;;4391174;32;20120;-63
2022/02/07 15:00:23;;;;;;;8.50;5.68;;;;;;;;;;4377290;32;20512;-63
2022/02/07 15:02:50;;;;;;;9.00;5.85;;;;;;;;;;4392587;32;20159;-63
2022/02/07 15:05:17;;;;;;;7.80;5.45;;;;;;;;;;4379585;32;20560;-64
2022/02/07 15:07:44;;;;;;;7.85;5.25;;;;;;;;;;4379923;32;20179;-63
2022/02/07 15:10:11;;;;;;;8.50;5.78;;;;;;;;;;4392591;32;20119;-64
2022/02/07 15:12:38;;;;;;;7.70;5.18;;;;;;;;;;4393962;32;20085;-64
2022/02/07 15:15:06;;;;;;;8.18;5.32;;;;;;;;;;4405512;32;20436;-63
2022/02/07 15:17:34;;;;;;;8.35;5.50;;;;;;;;;;4392565;32;20496;-63
2022/02/07 15:20:03;;;;;;;8.65;5.50;;;;;;;;;;4392342;32;20073;-64
2022/02/07 15:22:30;;;;;;;9.20;6.12;;;;;;;;;;4380093;32;20086;-64
2022/02/07 15:24:59;;;;;;;7.85;5.62;;;;;;;;;;4393853;32;20085;-63
2022/02/07 15:27:28;;;;;;;8.18;6.00;;;;;;;;;;4405123;32;20089;-64
2022/02/07 15:29:56;;;;;;;8.50;5.60;;;;;;;;;;4404998;32;20081;-63
2022/02/07 15:32:29;;;;;;;7.72;5.57;;;;;;;;;;4404802;32;20146;-62
2022/02/07 15:34:58;;;;;;;7.97;5.65;;;;;;;;;;4378894;32;20082;-63
2022/02/07 15:37:27;;;;;;;9.27;6.20;;;;;;;;;;4393541;32;20088;-64
2022/02/07 15:39:54;;;;;;;10.68;6.12;;;;;;;;;;4391751;32;20503;-63
2022/02/07 15:42:21;;;;;;;9.38;6.00;;;;;;;;;;4405306;32;20078;-64
2022/02/07 15:44:50;;;;;;;8.90;6.22;;;;;;;;;;4404618;32;20089;-63
2022/02/07 15:47:17;;;;;;;10.15;6.10;;;;;;;;;;4392276;32;20158;-64
2022/02/07 15:49:44;;;;;;;8.32;5.70;;;;;;;;;;4392576;32;20078;-64
2022/02/07 15:52:11;;;;;;;8.18;5.53;;;;;;;;;;4391716;32;20076;-63
2022/02/07 15:54:38;;;;;;;10.00;6.00;;;;;;;;;;4404412;32;20090;-64
2022/02/07 15:57:08;;;;;;;8.77;5.60;;;;;;;;;;4393566;32;20062;-63
2022/02/07 15:59:37;;;;;;;10.35;6.22;;;;;;;;;;4393149;32;20084;-63
2022/02/07 16:02:12;;;;;;;9.02;5.25;;;;;;;;;;4392705;32;20170;-64
2022/02/07 16:04:41;;;;;;;9.32;5.85;;;;;;;;;;4393211;32;20078;-64
2022/02/07 16:07:12;;;;;;;8.10;5.22;;;;;;;;;;4393271;32;20488;-63
2022/02/07 16:09:39;;;;;;;8.20;5.70;;;;;;;;;;4393305;32;20101;-63
2022/02/07 16:12:13;;;;;;;7.80;5.37;;;;;;;;;;4404143;32;20089;-64
2022/02/07 16:14:40;;;;;;;8.73;5.70;;;;;;;;;;4379147;32;20081;-63
2022/02/07 16:17:08;;;;;;;8.07;5.65;;;;;;;;;;4391450;32;20142;-64
2022/02/07 16:19:36;;;;;;;8.40;4.90;;;;;;;;;;4391694;32;20074;-63
2022/02/07 16:22:03;;;;;;;7.43;5.12;;;;;;;;;;4391530;32;20073;-64
2022/02/07 16:24:30;;;;;;;8.48;5.68;;;;;;;;;;4404246;32;20077;-64
2022/02/07 16:26:57;;;;;;;7.78;5.53;;;;;;;;;;4392032;32;20162;-64
2022/02/07 16:29:24;;;;;;;9.85;5.60;;;;;;;;;;4391956;32;20066;-64
2022/02/07 16:31:50;;;;;;;6.35;4.50;;;;;;;;;;4392984;32;20096;-64
2022/02/07 16:34:18;;;;;;;7.62;5.30;;;;;;;;;;4392673;32;20093;-63
2022/02/07 16:36:45;;;;;;;7.75;5.40;;;;;;;;;;4392732;32;20600;-65
2022/02/07 16:39:13;;;;;;;8.77;5.45;;;;;;;;;;4392489;32;20081;-63
2022/02/07 16:41:41;;;;;;;8.55;5.60;;;;;;;;;;4379535;32;20070;-63
2022/02/07 16:44:09;;;;;;;9.00;5.65;;;;;;;;;;4403978;32;20081;-63
2022/02/07 16:46:48;;;;;;;7.90;5.28;;;;;;;;;;4393021;32;20092;-64
2022/02/07 16:49:17;;;;;;;6.12;4.37;;;;;;;;;;4402842;32;20150;-64
2022/02/07 16:51:44;;;;;;;7.80;5.20;;;;;;;;;;4378957;32;20089;-63
2022/02/07 16:54:11;;;;;;;9.35;5.45;;;;;;;;;;4403624;32;20480;-63
2022/02/07 16:56:39;;;;;;;8.82;5.43;;;;;;;;;;4404066;32;20081;-64
2022/02/07 16:59:06;;;;;;;8.35;5.12;;;;;;;;;;4391046;32;20145;-64
2022/02/07 17:01:33;;;;;;;7.97;5.07;;;;;;;;;;4378516;32;20084;-64
2022/02/07 17:04:00;;;;;;;8.70;5.32;;;;;;;;;;4391289;32;20510;-64
2022/02/07 17:06:27;;;;;;;7.97;5.40;;;;;;;;;;4393251;32;20093;-63
2022/02/07 17:08:54;;;;;;;8.35;5.55;;;;;;;;;;4391209;32;20089;-64
2022/02/07 17:11:23;;;;;;;7.75;5.03;;;;;;;;;;4404012;32;20453;-63
2022/02/07 17:13:50;;;;;;;9.75;5.72;;;;;;;;;;4391861;32;20223;-63
2022/02/07 17:16:17;;;;;;;9.05;5.60;;;;;;;;;;4390946;32;20080;-64
2022/02/07 17:18:44;;;;;;;8.38;5.22;;;;;;;;;;4403501;32;20066;-65
2022/02/07 17:21:11;;;;;;;9.63;5.80;;;;;;;;;;4390894;32;20085;-64
2022/02/07 17:23:37;;;;;;;8.20;5.07;;;;;;;;;;4390629;32;20089;-63
2022/02/07 17:26:05;;;;;;;8.75;5.68;;;;;;;;;;4390284;32;20461;-63
2022/02/07 17:28:33;;;;;;;8.43;5.70;;;;;;;;;;4390981;32;20089;-63
2022/02/07 17:31:03;;;;;;;9.48;5.47;;;;;;;;;;4403384;32;20515;-63
2022/02/07 17:33:31;;;;;;;8.90;5.78;;;;;;;;;;4390677;32;20117;-62
2022/02/07 17:35:57;;;;;;;8.70;5.87;;;;;;;;;;4403244;32;20157;-63
2022/02/07 17:38:29;;;;;;;8.13;5.65;;;;;;;;;;4391805;32;20078;-63
2022/02/07 17:40:57;;;;;;;8.57;5.80;;;;;;;;;;4390925;32;20100;-63